sensor_id;sensor_type;location;lat;lon;timestamp;temperature;humidity
2763;DHT22;1389;51.490;7.338;2023-02-15T00:01:44;4.80;87.90
2763;DHT22;1389;51.490;7.338;2023-02-15T00:04:16;4.80;87.80
2763;DHT22;1389;51.490;7.338;2023-02-15T00:06:42;4.80;87.70
2763;DHT22;1389;51.490;7.338;2023-02-15T00:09:09;4.70;87.40
2763;DHT22;1389;51.490;7.338;2023-02-15T00:11:36;4.60;87.20
2763;DHT22;1389;51.490;7.338;2023-02-15T00:14:20;4.40;87.50
2763;DHT22;1389;51.490;7.338;2023-02-15T00:16:48;4.30;87.50
2763;DHT22;1389;51.490;7.338;2023-02-15T00:19:16;4.30;88.30
2763;DHT22;1389;51.490;7.338;2023-02-15T00:21:42;4.30;88.30
2763;DHT22;1389;51.490;7.338;2023-02-15T00:24:10;4.30;88.40
2763;DHT22;1389;51.490;7.338;2023-02-15T00:26:41;4.30;88.50
2763;DHT22;1389;51.490;7.338;2023-02-15T00:29:09;4.30;88.60
2763;DHT22;1389;51.490;7.338;2023-02-15T00:31:35;4.40;88.70
2763;DHT22;1389;51.490;7.338;2023-02-15T00:34:07;4.30;88.30
2763;DHT22;1389;51.490;7.338;2023-02-15T00:36:33;4.30;88.40
2763;DHT22;1389;51.490;7.338;2023-02-15T00:39:00;4.30;88.50
2763;DHT22;1389;51.490;7.338;2023-02-15T00:41:26;4.20;87.90
2763;DHT22;1389;51.490;7.338;2023-02-15T00:43:52;4.00;87.90
2763;DHT22;1389;51.490;7.338;2023-02-15T00:46:18;3.90;88.20
2763;DHT22;1389;51.490;7.338;2023-02-15T00:48:44;3.80;88.40
2763;DHT22;1389;51.490;7.338;2023-02-15T00:51:10;3.80;88.60
2763;DHT22;1389;51.490;7.338;2023-02-15T00:53:36;3.80;88.70
2763;DHT22;1389;51.490;7.338;2023-02-15T00:56:02;3.80;88.90
2763;DHT22;1389;51.490;7.338;2023-02-15T00:58:28;3.90;89.00
2763;DHT22;1389;51.490;7.338;2023-02-15T01:00:54;3.90;88.90
2763;DHT22;1389;51.490;7.338;2023-02-15T01:03:21;3.90;89.00
2763;DHT22;1389;51.490;7.338;2023-02-15T01:05:48;4.00;89.10
2763;DHT22;1389;51.490;7.338;2023-02-15T01:08:15;4.00;88.80
2763;DHT22;1389;51.490;7.338;2023-02-15T01:10:41;4.00;88.80
2763;DHT22;1389;51.490;7.338;2023-02-15T01:13:09;4.00;88.90
2763;DHT22;1389;51.490;7.338;2023-02-15T01:15:35;4.00;88.60
2763;DHT22;1389;51.490;7.338;2023-02-15T01:18:02;4.00;88.60
2763;DHT22;1389;51.490;7.338;2023-02-15T01:20:29;4.00;88.70
2763;DHT22;1389;51.490;7.338;2023-02-15T01:22:56;4.00;88.70
2763;DHT22;1389;51.490;7.338;2023-02-15T01:25:24;3.90;88.40
2763;DHT22;1389;51.490;7.338;2023-02-15T01:27:50;3.80;88.60
2763;DHT22;1389;51.490;7.338;2023-02-15T01:30:16;3.70;88.90
2763;DHT22;1389;51.490;7.338;2023-02-15T01:32:43;3.70;88.50
2763;DHT22;1389;51.490;7.338;2023-02-15T01:35:10;3.60;88.30
2763;DHT22;1389;51.490;7.338;2023-02-15T01:37:36;3.50;88.50
2763;DHT22;1389;51.490;7.338;2023-02-15T01:40:05;3.40;88.30
2763;DHT22;1389;51.490;7.338;2023-02-15T01:42:32;3.40;88.20
2763;DHT22;1389;51.490;7.338;2023-02-15T01:45:20;3.20;88.70
2763;DHT22;1389;51.490;7.338;2023-02-15T01:50:28;3.00;88.90
2763;DHT22;1389;51.490;7.338;2023-02-15T01:53:03;3.00;89.00
2763;DHT22;1389;51.490;7.338;2023-02-15T01:55:39;3.00;89.00
2763;DHT22;1389;51.490;7.338;2023-02-15T01:58:06;3.00;89.20
2763;DHT22;1389;51.490;7.338;2023-02-15T02:00:34;3.00;89.10
2763;DHT22;1389;51.490;7.338;2023-02-15T02:03:01;3.00;89.20
2763;DHT22;1389;51.490;7.338;2023-02-15T02:05:28;3.10;89.30
2763;DHT22;1389;51.490;7.338;2023-02-15T02:07:57;3.10;89.30
2763;DHT22;1389;51.490;7.338;2023-02-15T02:10:25;3.10;89.50
2763;DHT22;1389;51.490;7.338;2023-02-15T02:13:01;3.20;89.80
2763;DHT22;1389;51.490;7.338;2023-02-15T02:15:54;3.20;89.90
2763;DHT22;1389;51.490;7.338;2023-02-15T02:23:29;3.10;88.90
2763;DHT22;1389;51.490;7.338;2023-02-15T02:31:58;3.00;89.40
2763;DHT22;1389;51.490;7.338;2023-02-15T02:34:37;3.00;89.30
2763;DHT22;1389;51.490;7.338;2023-02-15T02:37:24;3.00;89.20
2763;DHT22;1389;51.490;7.338;2023-02-15T02:40:10;3.00;89.00
2763;DHT22;1389;51.490;7.338;2023-02-15T02:42:41;3.00;88.90
2763;DHT22;1389;51.490;7.338;2023-02-15T02:45:16;3.00;89.30
2763;DHT22;1389;51.490;7.338;2023-02-15T02:47:50;3.00;89.50
2763;DHT22;1389;51.490;7.338;2023-02-15T02:50:26;3.00;89.30
2763;DHT22;1389;51.490;7.338;2023-02-15T02:52:54;3.00;89.50
2763;DHT22;1389;51.490;7.338;2023-02-15T02:55:30;3.00;89.50
2763;DHT22;1389;51.490;7.338;2023-02-15T02:57:59;3.00;89.30
2763;DHT22;1389;51.490;7.338;2023-02-15T03:00:29;3.00;89.00
2763;DHT22;1389;51.490;7.338;2023-02-15T03:03:03;3.00;89.00
2763;DHT22;1389;51.490;7.338;2023-02-15T03:05:57;3.00;89.30
2763;DHT22;1389;51.490;7.338;2023-02-15T03:08:29;3.00;89.40
2763;DHT22;1389;51.490;7.338;2023-02-15T03:10:59;3.10;89.30
2763;DHT22;1389;51.490;7.338;2023-02-15T03:13:26;3.10;89.10
2763;DHT22;1389;51.490;7.338;2023-02-15T03:15:54;3.10;89.20
2763;DHT22;1389;51.490;7.338;2023-02-15T03:18:46;3.10;89.10
2763;DHT22;1389;51.490;7.338;2023-02-15T03:21:27;3.10;89.20
2763;DHT22;1389;51.490;7.338;2023-02-15T03:24:07;3.00;89.30
2763;DHT22;1389;51.490;7.338;2023-02-15T03:26:36;3.00;89.40
2763;DHT22;1389;51.490;7.338;2023-02-15T03:29:03;2.90;89.20
2763;DHT22;1389;51.490;7.338;2023-02-15T03:31:33;2.80;89.20
2763;DHT22;1389;51.490;7.338;2023-02-15T03:34:07;2.80;89.10
2763;DHT22;1389;51.490;7.338;2023-02-15T03:39:18;2.60;89.50
2763;DHT22;1389;51.490;7.338;2023-02-15T03:42:10;2.60;89.60
2763;DHT22;1389;51.490;7.338;2023-02-15T03:47:31;2.60;89.90
2763;DHT22;1389;51.490;7.338;2023-02-15T03:50:03;2.60;89.80
2763;DHT22;1389;51.490;7.338;2023-02-15T03:52:52;2.60;89.80
2763;DHT22;1389;51.490;7.338;2023-02-15T03:55:18;2.60;90.10
2763;DHT22;1389;51.490;7.338;2023-02-15T03:57:44;2.50;89.90
2763;DHT22;1389;51.490;7.338;2023-02-15T04:00:29;2.50;90.00
2763;DHT22;1389;51.490;7.338;2023-02-15T04:03:24;2.50;89.80
2763;DHT22;1389;51.490;7.338;2023-02-15T04:05:53;2.40;89.50
2763;DHT22;1389;51.490;7.338;2023-02-15T04:08:19;2.30;89.80
2763;DHT22;1389;51.490;7.338;2023-02-15T04:10:45;2.30;89.90
2763;DHT22;1389;51.490;7.338;2023-02-15T04:13:29;2.20;90.10
2763;DHT22;1389;51.490;7.338;2023-02-15T04:15:55;2.10;90.10
2763;DHT22;1389;51.490;7.338;2023-02-15T04:18:36;2.00;90.30
2763;DHT22;1389;51.490;7.338;2023-02-15T04:21:22;2.00;90.10
2763;DHT22;1389;51.490;7.338;2023-02-15T04:24:07;2.00;90.10
2763;DHT22;1389;51.490;7.338;2023-02-15T04:26:51;2.00;90.20
2763;DHT22;1389;51.490;7.338;2023-02-15T04:29:23;2.00;90.20
2763;DHT22;1389;51.490;7.338;2023-02-15T04:31:50;2.00;90.10
2763;DHT22;1389;51.490;7.338;2023-02-15T04:34:16;2.00;90.00
2763;DHT22;1389;51.490;7.338;2023-02-15T04:36:42;2.00;90.10
2763;DHT22;1389;51.490;7.338;2023-02-15T04:39:09;2.00;90.30
2763;DHT22;1389;51.490;7.338;2023-02-15T04:41:37;2.00;90.20
2763;DHT22;1389;51.490;7.338;2023-02-15T04:44:04;2.00;90.40
2763;DHT22;1389;51.490;7.338;2023-02-15T04:46:30;2.00;91.00
2763;DHT22;1389;51.490;7.338;2023-02-15T04:48:56;2.10;91.00
2763;DHT22;1389;51.490;7.338;2023-02-15T04:51:23;2.10;90.90
2763;DHT22;1389;51.490;7.338;2023-02-15T04:53:49;2.20;90.90
2763;DHT22;1389;51.490;7.338;2023-02-15T04:56:15;2.20;90.80
2763;DHT22;1389;51.490;7.338;2023-02-15T04:58:41;2.20;90.80
2763;DHT22;1389;51.490;7.338;2023-02-15T05:01:08;2.20;90.60
2763;DHT22;1389;51.490;7.338;2023-02-15T05:03:34;2.10;90.20
2763;DHT22;1389;51.490;7.338;2023-02-15T05:06:01;2.00;90.30
2763;DHT22;1389;51.490;7.338;2023-02-15T05:08:27;2.00;90.40
2763;DHT22;1389;51.490;7.338;2023-02-15T05:10:53;1.90;90.60
2763;DHT22;1389;51.490;7.338;2023-02-15T05:13:19;1.90;90.70
2763;DHT22;1389;51.490;7.338;2023-02-15T05:15:51;1.80;90.80
2763;DHT22;1389;51.490;7.338;2023-02-15T05:18:20;1.80;91.00
2763;DHT22;1389;51.490;7.338;2023-02-15T05:20:46;1.80;91.00
2763;DHT22;1389;51.490;7.338;2023-02-15T05:23:12;1.80;90.80
2763;DHT22;1389;51.490;7.338;2023-02-15T05:25:38;1.90;91.00
2763;DHT22;1389;51.490;7.338;2023-02-15T05:28:24;1.80;91.00
2763;DHT22;1389;51.490;7.338;2023-02-15T05:31:06;1.80;91.10
2763;DHT22;1389;51.490;7.338;2023-02-15T05:33:32;1.80;91.30
2763;DHT22;1389;51.490;7.338;2023-02-15T05:36:00;1.90;91.40
2763;DHT22;1389;51.490;7.338;2023-02-15T05:38:26;1.80;91.30
2763;DHT22;1389;51.490;7.338;2023-02-15T05:40:52;1.90;91.20
2763;DHT22;1389;51.490;7.338;2023-02-15T05:43:18;1.90;91.00
2763;DHT22;1389;51.490;7.338;2023-02-15T05:45:49;1.80;91.20
2763;DHT22;1389;51.490;7.338;2023-02-15T05:48:16;1.80;91.30
2763;DHT22;1389;51.490;7.338;2023-02-15T05:50:43;1.90;91.40
2763;DHT22;1389;51.490;7.338;2023-02-15T05:53:09;1.90;91.30
2763;DHT22;1389;51.490;7.338;2023-02-15T05:55:38;1.90;91.50
2763;DHT22;1389;51.490;7.338;2023-02-15T05:58:05;1.80;91.30
2763;DHT22;1389;51.490;7.338;2023-02-15T06:00:31;1.90;91.10
2763;DHT22;1389;51.490;7.338;2023-02-15T06:02:57;1.90;91.00
2763;DHT22;1389;51.490;7.338;2023-02-15T06:05:23;1.90;91.10
2763;DHT22;1389;51.490;7.338;2023-02-15T06:07:49;1.80;91.30
2763;DHT22;1389;51.490;7.338;2023-02-15T06:10:15;1.80;91.50
2763;DHT22;1389;51.490;7.338;2023-02-15T06:12:41;1.80;91.50
2763;DHT22;1389;51.490;7.338;2023-02-15T06:15:07;1.80;91.50
2763;DHT22;1389;51.490;7.338;2023-02-15T06:17:33;1.90;91.50
2763;DHT22;1389;51.490;7.338;2023-02-15T06:20:00;1.90;91.20
2763;DHT22;1389;51.490;7.338;2023-02-15T06:22:26;1.90;91.10
2763;DHT22;1389;51.490;7.338;2023-02-15T06:24:52;1.90;91.00
2763;DHT22;1389;51.490;7.338;2023-02-15T06:27:18;1.90;91.20
2763;DHT22;1389;51.490;7.338;2023-02-15T06:29:44;1.90;91.20
2763;DHT22;1389;51.490;7.338;2023-02-15T06:32:10;2.00;91.00
2763;DHT22;1389;51.490;7.338;2023-02-15T06:34:36;2.00;91.10
2763;DHT22;1389;51.490;7.338;2023-02-15T06:37:02;2.00;91.00
2763;DHT22;1389;51.490;7.338;2023-02-15T06:39:28;2.00;91.10
2763;DHT22;1389;51.490;7.338;2023-02-15T06:41:54;2.10;91.30
2763;DHT22;1389;51.490;7.338;2023-02-15T06:44:20;2.10;90.90
2763;DHT22;1389;51.490;7.338;2023-02-15T06:46:46;2.10;90.70
2763;DHT22;1389;51.490;7.338;2023-02-15T06:49:12;2.00;90.80
2763;DHT22;1389;51.490;7.338;2023-02-15T06:51:38;1.90;91.10
2763;DHT22;1389;51.490;7.338;2023-02-15T06:54:04;1.90;91.20
2763;DHT22;1389;51.490;7.338;2023-02-15T06:56:30;1.90;91.20
2763;DHT22;1389;51.490;7.338;2023-02-15T06:58:56;1.90;91.20
2763;DHT22;1389;51.490;7.338;2023-02-15T07:01:22;1.80;91.20
2763;DHT22;1389;51.490;7.338;2023-02-15T07:06:15;1.80;91.10
2763;DHT22;1389;51.490;7.338;2023-02-15T07:08:41;1.80;91.50
2763;DHT22;1389;51.490;7.338;2023-02-15T07:11:07;1.90;91.80
2763;DHT22;1389;51.490;7.338;2023-02-15T07:13:52;1.90;91.90
2763;DHT22;1389;51.490;7.338;2023-02-15T07:16:19;1.90;91.80
2763;DHT22;1389;51.490;7.338;2023-02-15T07:18:45;1.90;91.80
2763;DHT22;1389;51.490;7.338;2023-02-15T07:21:11;2.00;91.80
2763;DHT22;1389;51.490;7.338;2023-02-15T07:23:38;2.00;91.70
2763;DHT22;1389;51.490;7.338;2023-02-15T07:26:06;2.00;91.80
2763;DHT22;1389;51.490;7.338;2023-02-15T07:28:33;2.00;91.70
2763;DHT22;1389;51.490;7.338;2023-02-15T07:31:03;2.00;91.70
2763;DHT22;1389;51.490;7.338;2023-02-15T07:33:33;2.00;91.60
2763;DHT22;1389;51.490;7.338;2023-02-15T07:36:04;2.00;91.70
2763;DHT22;1389;51.490;7.338;2023-02-15T07:38:33;2.10;91.90
2763;DHT22;1389;51.490;7.338;2023-02-15T07:41:04;2.10;92.20
2763;DHT22;1389;51.490;7.338;2023-02-15T07:43:33;2.20;92.40
2763;DHT22;1389;51.490;7.338;2023-02-15T07:46:00;2.30;92.30
2763;DHT22;1389;51.490;7.338;2023-02-15T07:48:27;2.30;92.40
2763;DHT22;1389;51.490;7.338;2023-02-15T07:50:53;2.40;92.40
2763;DHT22;1389;51.490;7.338;2023-02-15T07:53:19;2.40;92.50
2763;DHT22;1389;51.490;7.338;2023-02-15T07:55:45;2.50;92.50
2763;DHT22;1389;51.490;7.338;2023-02-15T07:58:11;2.60;92.40
2763;DHT22;1389;51.490;7.338;2023-02-15T08:00:37;2.60;92.30
2763;DHT22;1389;51.490;7.338;2023-02-15T08:03:25;2.60;92.30
2763;DHT22;1389;51.490;7.338;2023-02-15T08:05:59;2.60;92.30
2763;DHT22;1389;51.490;7.338;2023-02-15T08:08:26;2.70;92.30
2763;DHT22;1389;51.490;7.338;2023-02-15T08:13:49;2.80;92.60
2763;DHT22;1389;51.490;7.338;2023-02-15T08:19:11;3.10;92.70
2763;DHT22;1389;51.490;7.338;2023-02-15T08:21:40;3.10;92.70
2763;DHT22;1389;51.490;7.338;2023-02-15T08:24:07;3.20;92.60
2763;DHT22;1389;51.490;7.338;2023-02-15T08:26:34;3.30;92.60
2763;DHT22;1389;51.490;7.338;2023-02-15T08:29:01;3.40;92.40
2763;DHT22;1389;51.490;7.338;2023-02-15T08:31:28;3.40;92.30
2763;DHT22;1389;51.490;7.338;2023-02-15T08:33:55;3.60;92.40
2763;DHT22;1389;51.490;7.338;2023-02-15T08:36:24;3.70;92.40
2763;DHT22;1389;51.490;7.338;2023-02-15T08:38:51;3.90;92.30
2763;DHT22;1389;51.490;7.338;2023-02-15T08:41:21;4.40;92.90
2763;DHT22;1389;51.490;7.338;2023-02-15T08:43:49;4.90;92.60
2763;DHT22;1389;51.490;7.338;2023-02-15T08:46:17;5.60;92.20
2763;DHT22;1389;51.490;7.338;2023-02-15T08:48:44;6.10;90.40
2763;DHT22;1389;51.490;7.338;2023-02-15T08:51:15;6.30;88.40
2763;DHT22;1389;51.490;7.338;2023-02-15T08:53:45;6.50;87.90
2763;DHT22;1389;51.490;7.338;2023-02-15T08:56:12;7.00;87.90
2763;DHT22;1389;51.490;7.338;2023-02-15T08:58:38;7.40;85.90
2763;DHT22;1389;51.490;7.338;2023-02-15T09:01:14;7.70;84.90
2763;DHT22;1389;51.490;7.338;2023-02-15T09:03:47;8.30;85.40
2763;DHT22;1389;51.490;7.338;2023-02-15T09:06:15;9.50;85.20
2763;DHT22;1389;51.490;7.338;2023-02-15T09:08:41;10.50;81.10
2763;DHT22;1389;51.490;7.338;2023-02-15T09:11:10;10.90;77.10
2763;DHT22;1389;51.490;7.338;2023-02-15T09:13:37;10.80;74.80
2763;DHT22;1389;51.490;7.338;2023-02-15T09:16:06;10.70;74.60
2763;DHT22;1389;51.490;7.338;2023-02-15T09:18:35;10.50;73.70
2763;DHT22;1389;51.490;7.338;2023-02-15T09:21:08;10.20;73.90
2763;DHT22;1389;51.490;7.338;2023-02-15T09:23:35;9.90;73.90
2763;DHT22;1389;51.490;7.338;2023-02-15T09:26:05;9.80;74.80
2763;DHT22;1389;51.490;7.338;2023-02-15T09:28:32;10.10;75.10
2763;DHT22;1389;51.490;7.338;2023-02-15T09:31:09;10.40;73.70
2763;DHT22;1389;51.490;7.338;2023-02-15T09:33:36;10.20;72.20
2763;DHT22;1389;51.490;7.338;2023-02-15T09:36:03;9.90;73.10
2763;DHT22;1389;51.490;7.338;2023-02-15T09:38:30;9.60;74.10
2763;DHT22;1389;51.490;7.338;2023-02-15T09:43:57;8.90;75.80
2763;DHT22;1389;51.490;7.338;2023-02-15T09:52:05;8.20;78.20
2763;DHT22;1389;51.490;7.338;2023-02-15T09:54:48;8.20;78.90
2763;DHT22;1389;51.490;7.338;2023-02-15T09:57:28;8.10;79.00
2763;DHT22;1389;51.490;7.338;2023-02-15T10:03:04;8.10;79.40
2763;DHT22;1389;51.490;7.338;2023-02-15T10:05:47;8.10;78.90
2763;DHT22;1389;51.490;7.338;2023-02-15T10:14:15;8.30;79.70
2763;DHT22;1389;51.490;7.338;2023-02-15T10:17:01;8.40;78.70
2763;DHT22;1389;51.490;7.338;2023-02-15T10:19:39;8.70;77.30
2763;DHT22;1389;51.490;7.338;2023-02-15T10:25:01;8.90;76.30
2763;DHT22;1389;51.490;7.338;2023-02-15T10:27:46;9.00;75.80
2763;DHT22;1389;51.490;7.338;2023-02-15T10:30:27;9.10;75.90
2763;DHT22;1389;51.490;7.338;2023-02-15T10:33:06;9.20;76.70
2763;DHT22;1389;51.490;7.338;2023-02-15T10:44:38;9.30;77.60
2763;DHT22;1389;51.490;7.338;2023-02-15T10:55:16;9.90;74.70
2763;DHT22;1389;51.490;7.338;2023-02-15T11:00:50;10.10;73.80
2763;DHT22;1389;51.490;7.338;2023-02-15T11:03:33;10.30;73.70
2763;DHT22;1389;51.490;7.338;2023-02-15T11:06:09;10.40;73.80
2763;DHT22;1389;51.490;7.338;2023-02-15T11:08:43;10.40;73.20
2763;DHT22;1389;51.490;7.338;2023-02-15T11:11:16;10.40;73.00
2763;DHT22;1389;51.490;7.338;2023-02-15T11:13:49;10.40;72.10
2763;DHT22;1389;51.490;7.338;2023-02-15T11:16:32;10.50;72.60
2763;DHT22;1389;51.490;7.338;2023-02-15T11:19:28;10.60;69.90
2763;DHT22;1389;51.490;7.338;2023-02-15T11:22:00;10.60;69.20
2763;DHT22;1389;51.490;7.338;2023-02-15T11:24:29;10.70;70.70
2763;DHT22;1389;51.490;7.338;2023-02-15T11:27:00;10.80;70.90
2763;DHT22;1389;51.490;7.338;2023-02-15T11:30:04;10.90;70.80
2763;DHT22;1389;51.490;7.338;2023-02-15T11:32:33;10.90;70.70
2763;DHT22;1389;51.490;7.338;2023-02-15T11:35:02;10.90;70.90
2763;DHT22;1389;51.490;7.338;2023-02-15T11:37:47;10.90;70.10
2763;DHT22;1389;51.490;7.338;2023-02-15T11:40:27;11.10;70.70
2763;DHT22;1389;51.490;7.338;2023-02-15T11:42:57;11.10;70.30
2763;DHT22;1389;51.490;7.338;2023-02-15T11:45:29;11.20;68.90
2763;DHT22;1389;51.490;7.338;2023-02-15T11:47:57;11.30;69.20
2763;DHT22;1389;51.490;7.338;2023-02-15T11:50:26;11.40;68.20
2763;DHT22;1389;51.490;7.338;2023-02-15T11:53:01;11.50;68.10
2763;DHT22;1389;51.490;7.338;2023-02-15T11:55:28;11.60;67.60
2763;DHT22;1389;51.490;7.338;2023-02-15T11:58:45;11.60;67.10
2763;DHT22;1389;51.490;7.338;2023-02-15T12:00:46;11.70;66.30
2763;DHT22;1389;51.490;7.338;2023-02-15T12:05:53;11.90;67.00
2763;DHT22;1389;51.490;7.338;2023-02-15T12:08:22;12.00;64.70
2763;DHT22;1389;51.490;7.338;2023-02-15T12:11:12;12.10;64.40
2763;DHT22;1389;51.490;7.338;2023-02-15T12:13:58;12.20;65.00
2763;DHT22;1389;51.490;7.338;2023-02-15T12:16:26;12.30;65.80
2763;DHT22;1389;51.490;7.338;2023-02-15T12:18:56;12.30;66.80
2763;DHT22;1389;51.490;7.338;2023-02-15T12:21:33;12.20;66.90
2763;DHT22;1389;51.490;7.338;2023-02-15T12:26:58;12.20;64.70
2763;DHT22;1389;51.490;7.338;2023-02-15T12:29:29;12.30;65.30
2763;DHT22;1389;51.490;7.338;2023-02-15T12:31:57;12.30;65.50
2763;DHT22;1389;51.490;7.338;2023-02-15T12:34:37;12.40;67.30
2763;DHT22;1389;51.490;7.338;2023-02-15T12:37:14;12.40;67.20
2763;DHT22;1389;51.490;7.338;2023-02-15T12:39:53;12.30;66.20
2763;DHT22;1389;51.490;7.338;2023-02-15T12:42:19;12.40;66.90
2763;DHT22;1389;51.490;7.338;2023-02-15T12:50:39;12.50;66.10
2763;DHT22;1389;51.490;7.338;2023-02-15T12:53:33;12.70;65.40
2763;DHT22;1389;51.490;7.338;2023-02-15T12:56:04;12.80;64.70
2763;DHT22;1389;51.490;7.338;2023-02-15T12:58:32;12.80;64.70
2763;DHT22;1389;51.490;7.338;2023-02-15T13:01:18;12.80;65.90
2763;DHT22;1389;51.490;7.338;2023-02-15T13:06:18;12.90;66.70
2763;DHT22;1389;51.490;7.338;2023-02-15T13:08:49;12.90;66.50
2763;DHT22;1389;51.490;7.338;2023-02-15T13:11:21;12.90;66.60
2763;DHT22;1389;51.490;7.338;2023-02-15T13:14:03;12.90;68.10
2763;DHT22;1389;51.490;7.338;2023-02-15T13:16:34;13.00;67.40
2763;DHT22;1389;51.490;7.338;2023-02-15T13:19:33;13.00;67.70
2763;DHT22;1389;51.490;7.338;2023-02-15T13:22:22;13.00;67.60
2763;DHT22;1389;51.490;7.338;2023-02-15T13:24:53;13.10;64.20
2763;DHT22;1389;51.490;7.338;2023-02-15T13:27:24;13.20;64.30
2763;DHT22;1389;51.490;7.338;2023-02-15T13:29:55;13.40;63.00
2763;DHT22;1389;51.490;7.338;2023-02-15T13:32:30;13.40;63.50
2763;DHT22;1389;51.490;7.338;2023-02-15T13:35:00;13.40;63.00
2763;DHT22;1389;51.490;7.338;2023-02-15T13:53:38;13.90;58.20
2763;DHT22;1389;51.490;7.338;2023-02-15T14:02:20;13.70;59.70
2763;DHT22;1389;51.490;7.338;2023-02-15T14:04:50;13.80;61.00
2763;DHT22;1389;51.490;7.338;2023-02-15T14:13:28;13.80;59.60
2763;DHT22;1389;51.490;7.338;2023-02-15T14:16:17;13.90;59.20
2763;DHT22;1389;51.490;7.338;2023-02-15T14:18:51;13.90;59.60
2763;DHT22;1389;51.490;7.338;2023-02-15T14:21:30;13.80;62.20
2763;DHT22;1389;51.490;7.338;2023-02-15T14:24:17;13.80;61.10
2763;DHT22;1389;51.490;7.338;2023-02-15T14:26:59;13.70;62.60
2763;DHT22;1389;51.490;7.338;2023-02-15T14:32:41;13.60;63.00
2763;DHT22;1389;51.490;7.338;2023-02-15T14:35:20;13.50;63.60
2763;DHT22;1389;51.490;7.338;2023-02-15T14:40:48;13.40;63.90
2763;DHT22;1389;51.490;7.338;2023-02-15T14:43:49;13.40;63.90
2763;DHT22;1389;51.490;7.338;2023-02-15T14:56:47;13.20;64.30
2763;DHT22;1389;51.490;7.338;2023-02-15T15:02:15;13.30;61.70
2763;DHT22;1389;51.490;7.338;2023-02-15T15:05:06;13.30;63.80
2763;DHT22;1389;51.490;7.338;2023-02-15T15:07:58;13.30;64.10
2763;DHT22;1389;51.490;7.338;2023-02-15T15:10:39;13.30;63.10
2763;DHT22;1389;51.490;7.338;2023-02-15T15:13:52;13.30;63.40
2763;DHT22;1389;51.490;7.338;2023-02-15T15:16:46;13.30;63.00
2763;DHT22;1389;51.490;7.338;2023-02-15T15:22:31;13.20;64.00
2763;DHT22;1389;51.490;7.338;2023-02-15T15:25:01;13.10;63.50
2763;DHT22;1389;51.490;7.338;2023-02-15T15:37:59;12.90;65.20
2763;DHT22;1389;51.490;7.338;2023-02-15T15:49:10;12.60;66.80
2763;DHT22;1389;51.490;7.338;2023-02-15T15:51:40;12.60;67.00
2763;DHT22;1389;51.490;7.338;2023-02-15T15:54:20;12.50;67.30
2763;DHT22;1389;51.490;7.338;2023-02-15T15:56:59;12.40;67.60
2763;DHT22;1389;51.490;7.338;2023-02-15T15:59:29;12.40;67.60
2763;DHT22;1389;51.490;7.338;2023-02-15T16:02:04;12.30;67.90
2763;DHT22;1389;51.490;7.338;2023-02-15T16:04:33;12.20;68.70
2763;DHT22;1389;51.490;7.338;2023-02-15T16:10:05;12.00;69.50
2763;DHT22;1389;51.490;7.338;2023-02-15T16:12:36;11.90;70.00
2763;DHT22;1389;51.490;7.338;2023-02-15T16:16:03;11.90;69.50
2763;DHT22;1389;51.490;7.338;2023-02-15T16:18:04;11.80;69.20
2763;DHT22;1389;51.490;7.338;2023-02-15T16:20:35;11.70;69.40
2763;DHT22;1389;51.490;7.338;2023-02-15T16:28:32;11.60;69.80
2763;DHT22;1389;51.490;7.338;2023-02-15T16:31:13;11.50;70.20
2763;DHT22;1389;51.490;7.338;2023-02-15T16:33:41;11.50;70.50
2763;DHT22;1389;51.490;7.338;2023-02-15T16:36:13;11.40;70.60
2763;DHT22;1389;51.490;7.338;2023-02-15T16:41:13;11.30;70.50
2763;DHT22;1389;51.490;7.338;2023-02-15T16:43:45;11.30;70.70
2763;DHT22;1389;51.490;7.338;2023-02-15T16:46:18;11.20;70.90
2763;DHT22;1389;51.490;7.338;2023-02-15T16:48:49;11.20;70.90
2763;DHT22;1389;51.490;7.338;2023-02-15T16:51:26;11.10;71.10
2763;DHT22;1389;51.490;7.338;2023-02-15T16:53:53;11.10;71.20
2763;DHT22;1389;51.490;7.338;2023-02-15T16:56:26;11.00;71.30
2763;DHT22;1389;51.490;7.338;2023-02-15T16:58:54;11.00;71.90
2763;DHT22;1389;51.490;7.338;2023-02-15T17:01:24;10.90;71.90
2763;DHT22;1389;51.490;7.338;2023-02-15T17:04:29;10.80;71.80
2763;DHT22;1389;51.490;7.338;2023-02-15T17:07:05;10.70;72.10
2763;DHT22;1389;51.490;7.338;2023-02-15T17:09:33;10.60;72.40
2763;DHT22;1389;51.490;7.338;2023-02-15T17:11:59;10.60;72.60
2763;DHT22;1389;51.490;7.338;2023-02-15T17:14:29;10.60;72.90
2763;DHT22;1389;51.490;7.338;2023-02-15T17:17:12;10.50;72.90
2763;DHT22;1389;51.490;7.338;2023-02-15T17:19:48;10.50;72.90
2763;DHT22;1389;51.490;7.338;2023-02-15T17:22:27;10.50;72.90
2763;DHT22;1389;51.490;7.338;2023-02-15T17:24:59;10.40;72.80
2763;DHT22;1389;51.490;7.338;2023-02-15T17:27:28;10.30;73.20
2763;DHT22;1389;51.490;7.338;2023-02-15T17:29:59;10.30;73.10
2763;DHT22;1389;51.490;7.338;2023-02-15T17:32:28;10.30;73.00
2763;DHT22;1389;51.490;7.338;2023-02-15T17:37:45;10.30;73.20
2763;DHT22;1389;51.490;7.338;2023-02-15T17:40:26;10.20;73.00
2763;DHT22;1389;51.490;7.338;2023-02-15T17:42:53;10.10;73.30
2763;DHT22;1389;51.490;7.338;2023-02-15T17:45:20;10.10;73.20
2763;DHT22;1389;51.490;7.338;2023-02-15T17:47:48;10.10;73.50
2763;DHT22;1389;51.490;7.338;2023-02-15T17:50:21;10.00;73.80
2763;DHT22;1389;51.490;7.338;2023-02-15T17:52:47;10.00;74.00
2763;DHT22;1389;51.490;7.338;2023-02-15T17:55:17;10.00;74.00
2763;DHT22;1389;51.490;7.338;2023-02-15T17:58:10;10.00;74.00
2763;DHT22;1389;51.490;7.338;2023-02-15T18:01:03;10.00;74.00
2763;DHT22;1389;51.490;7.338;2023-02-15T18:03:50;9.90;74.10
2763;DHT22;1389;51.490;7.338;2023-02-15T18:06:38;9.80;73.80
2763;DHT22;1389;51.490;7.338;2023-02-15T18:09:23;9.80;73.90
2763;DHT22;1389;51.490;7.338;2023-02-15T18:12:23;9.70;74.00
2763;DHT22;1389;51.490;7.338;2023-02-15T18:14:50;9.80;73.50
2763;DHT22;1389;51.490;7.338;2023-02-15T18:17:17;9.90;73.70
2763;DHT22;1389;51.490;7.338;2023-02-15T18:19:44;9.80;73.80
2763;DHT22;1389;51.490;7.338;2023-02-15T18:22:12;9.90;73.80
2763;DHT22;1389;51.490;7.338;2023-02-15T18:24:39;9.80;73.90
2763;DHT22;1389;51.490;7.338;2023-02-15T18:27:05;9.80;74.00
2763;DHT22;1389;51.490;7.338;2023-02-15T18:29:32;9.80;73.90
2763;DHT22;1389;51.490;7.338;2023-02-15T18:31:59;9.80;74.00
2763;DHT22;1389;51.490;7.338;2023-02-15T18:34:31;9.80;73.80
2763;DHT22;1389;51.490;7.338;2023-02-15T18:37:00;9.80;73.80
2763;DHT22;1389;51.490;7.338;2023-02-15T18:39:39;9.80;73.80
2763;DHT22;1389;51.490;7.338;2023-02-15T18:42:21;9.70;73.90
2763;DHT22;1389;51.490;7.338;2023-02-15T18:44:48;9.70;74.00
2763;DHT22;1389;51.490;7.338;2023-02-15T18:47:15;9.60;74.00
2763;DHT22;1389;51.490;7.338;2023-02-15T18:49:41;9.50;74.10
2763;DHT22;1389;51.490;7.338;2023-02-15T18:52:17;9.50;74.30
2763;DHT22;1389;51.490;7.338;2023-02-15T18:54:44;9.40;74.60
2763;DHT22;1389;51.490;7.338;2023-02-15T18:57:14;9.30;74.70
2763;DHT22;1389;51.490;7.338;2023-02-15T18:59:41;9.30;74.90
2763;DHT22;1389;51.490;7.338;2023-02-15T19:02:15;9.20;74.90
2763;DHT22;1389;51.490;7.338;2023-02-15T19:04:42;9.10;75.10
2763;DHT22;1389;51.490;7.338;2023-02-15T19:07:32;9.10;75.40
2763;DHT22;1389;51.490;7.338;2023-02-15T19:10:00;9.10;75.60
2763;DHT22;1389;51.490;7.338;2023-02-15T19:12:27;8.90;75.60
2763;DHT22;1389;51.490;7.338;2023-02-15T19:14:53;8.90;75.80
2763;DHT22;1389;51.490;7.338;2023-02-15T19:17:22;8.80;76.00
2763;DHT22;1389;51.490;7.338;2023-02-15T19:19:50;8.80;76.20
2763;DHT22;1389;51.490;7.338;2023-02-15T19:22:30;8.80;76.30
2763;DHT22;1389;51.490;7.338;2023-02-15T19:25:01;8.80;76.20
2763;DHT22;1389;51.490;7.338;2023-02-15T19:27:31;8.70;76.30
2763;DHT22;1389;51.490;7.338;2023-02-15T19:30:04;8.70;76.30